createdAt,value
2023-04-23T00:00:07.334Z,23.94
2023-04-23T00:01:07.360Z,23.93
2023-04-23T00:02:07.414Z,23.93
2023-04-23T00:03:07.555Z,23.93
2023-04-23T00:04:07.513Z,23.92
2023-04-23T00:05:07.461Z,23.92
2023-04-23T00:06:07.482Z,23.91
2023-04-23T00:07:07.389Z,23.91
2023-04-23T00:08:07.377Z,23.91
2023-04-23T00:09:07.381Z,23.91
2023-04-23T00:10:07.383Z,23.89
2023-04-23T00:11:07.378Z,23.90
2023-04-23T00:12:07.382Z,23.90
2023-04-23T00:13:07.400Z,23.90
2023-04-23T00:14:07.361Z,23.90
2023-04-23T00:15:07.360Z,23.89
2023-04-23T00:16:07.429Z,23.89
2023-04-23T00:17:07.391Z,23.89
2023-04-23T00:18:07.393Z,23.88
2023-04-23T00:19:07.391Z,23.88
2023-04-23T00:20:07.383Z,23.88
2023-04-23T00:21:07.400Z,23.88
2023-04-23T00:22:07.402Z,23.87
2023-04-23T00:23:07.416Z,23.88
2023-04-23T00:24:07.421Z,23.87
2023-04-23T00:25:07.424Z,23.87
2023-04-23T00:26:07.493Z,23.86
2023-04-23T00:27:07.492Z,23.86
2023-04-23T00:28:07.520Z,23.86
2023-04-23T00:29:07.578Z,23.86
2023-04-23T00:30:07.625Z,23.86
2023-04-23T00:31:07.705Z,23.85
2023-04-23T00:32:07.750Z,23.85
2023-04-23T00:33:07.601Z,23.85
2023-04-23T00:34:07.599Z,23.84
2023-04-23T00:35:07.587Z,23.84
2023-04-23T00:36:07.605Z,23.84
2023-04-23T00:37:07.620Z,23.83
2023-04-23T00:38:07.619Z,23.84
2023-04-23T00:39:07.640Z,23.83
2023-04-23T00:40:07.654Z,23.82
2023-04-23T00:41:07.688Z,23.84
2023-04-23T00:42:07.739Z,23.82
2023-04-23T00:43:07.818Z,23.82
2023-04-23T00:44:07.867Z,23.82
2023-04-23T00:45:07.926Z,23.82
2023-04-23T00:46:08.021Z,23.82
2023-04-23T00:47:08.001Z,23.81
2023-04-23T00:48:08.006Z,23.81
2023-04-23T00:49:08.015Z,23.81
2023-04-23T00:50:08.018Z,23.81
2023-04-23T00:51:08.046Z,23.80
2023-04-23T00:52:08.062Z,23.81
2023-04-23T00:53:08.084Z,23.80
2023-04-23T00:54:08.081Z,23.81
2023-04-23T00:55:08.109Z,23.80
2023-04-23T00:56:08.101Z,23.80
2023-04-23T00:57:08.101Z,23.79
2023-04-23T00:58:08.118Z,23.79
2023-04-23T00:59:08.188Z,23.79
2023-04-23T01:00:08.143Z,23.79
2023-04-23T01:01:08.226Z,23.79
2023-04-23T01:02:08.318Z,23.78
2023-04-23T01:03:08.401Z,23.78
2023-04-23T01:04:08.479Z,23.78
2023-04-23T01:05:08.391Z,23.77
2023-04-23T01:06:08.402Z,23.77
2023-04-23T01:07:08.399Z,23.77
2023-04-23T01:08:08.465Z,23.77
2023-04-23T01:09:08.428Z,23.77
2023-04-23T01:10:08.453Z,23.77
2023-04-23T01:11:08.449Z,23.76
2023-04-23T01:12:08.466Z,23.76
2023-04-23T01:13:08.486Z,23.76
2023-04-23T01:14:08.514Z,23.75
2023-04-23T01:15:08.525Z,23.76
2023-04-23T01:16:08.666Z,23.77
2023-04-23T01:17:08.572Z,23.76
2023-04-23T01:18:08.582Z,23.75
2023-04-23T01:19:08.653Z,23.74
2023-04-23T01:20:08.875Z,23.74
2023-04-23T01:21:08.777Z,23.74
2023-04-23T01:22:08.835Z,23.73
2023-04-23T01:23:08.915Z,23.74
2023-04-23T01:24:08.970Z,23.73
2023-04-23T01:25:09.026Z,23.73
2023-04-23T01:26:09.045Z,23.73
2023-04-23T01:27:09.115Z,23.73
2023-04-23T01:28:09.148Z,23.73
2023-04-23T01:29:09.140Z,23.72
2023-04-23T01:30:09.138Z,23.73
2023-04-23T01:31:09.188Z,23.72
2023-04-23T01:32:09.206Z,23.72
2023-04-23T01:33:09.206Z,23.72
2023-04-23T01:34:09.231Z,23.72
2023-04-23T01:35:09.255Z,23.71
2023-04-23T01:36:09.275Z,23.72
2023-04-23T01:37:09.308Z,23.72
2023-04-23T01:38:09.321Z,23.71
2023-04-23T01:39:09.315Z,23.71
2023-04-23T01:40:09.378Z,23.71
2023-04-23T01:41:09.446Z,23.71
2023-04-23T01:42:09.456Z,23.71
2023-04-23T01:43:09.494Z,23.71
2023-04-23T01:44:09.515Z,23.71
2023-04-23T01:45:09.514Z,23.70
2023-04-23T01:46:09.568Z,23.70
2023-04-23T01:47:09.534Z,23.70
2023-04-23T01:48:09.581Z,23.70
2023-04-23T01:49:09.770Z,23.70
2023-04-23T01:50:09.706Z,23.69
2023-04-23T01:51:09.705Z,23.70
2023-04-23T01:52:09.743Z,23.70
2023-04-23T01:53:09.902Z,23.69
2023-04-23T01:54:09.855Z,23.69
2023-04-23T01:55:09.906Z,23.68
2023-04-23T01:56:09.985Z,23.69
2023-04-23T01:57:10.019Z,23.68
2023-04-23T01:58:10.088Z,23.68
2023-04-23T01:59:10.133Z,23.68
2023-04-23T02:00:10.191Z,23.67
2023-04-23T02:01:10.263Z,23.68
2023-04-23T02:02:10.340Z,23.67
2023-04-23T02:03:10.488Z,23.67
2023-04-23T02:04:10.481Z,23.67
2023-04-23T02:05:10.463Z,23.67
2023-04-23T02:06:10.506Z,23.67
2023-04-23T02:07:10.606Z,23.66
2023-04-23T02:08:10.634Z,23.67
2023-04-23T02:09:10.669Z,23.65
2023-04-23T02:10:10.708Z,23.67
2023-04-23T02:11:10.777Z,23.66
2023-04-23T02:12:10.846Z,23.66
2023-04-23T02:13:10.892Z,23.66
2023-04-23T02:14:10.933Z,23.66
2023-04-23T02:15:10.992Z,23.65
2023-04-23T02:16:11.009Z,23.65
2023-04-23T02:17:11.063Z,23.65
2023-04-23T02:18:11.126Z,23.65
2023-04-23T02:19:12.110Z,23.65
2023-04-23T02:20:11.167Z,23.65
2023-04-23T02:21:11.203Z,23.64
2023-04-23T02:22:11.224Z,23.64
2023-04-23T02:23:11.250Z,23.64
2023-04-23T02:24:11.276Z,23.64
2023-04-23T02:25:11.270Z,23.64
2023-04-23T02:26:11.290Z,23.63
2023-04-23T02:27:11.350Z,23.62
2023-04-23T02:28:11.391Z,23.63
2023-04-23T02:29:11.384Z,23.63
2023-04-23T02:30:11.412Z,23.63
2023-04-23T02:31:11.541Z,23.63
2023-04-23T02:32:11.465Z,23.63
2023-04-23T02:33:11.523Z,23.62
2023-04-23T02:34:11.595Z,23.62
2023-04-23T02:35:11.640Z,23.62
2023-04-23T02:36:11.757Z,23.62
2023-04-23T02:37:11.781Z,23.62
2023-04-23T02:38:11.827Z,23.62
2023-04-23T02:39:11.879Z,23.61
2023-04-23T02:40:11.914Z,23.61
2023-04-23T02:41:11.962Z,23.61
2023-04-23T02:42:12.005Z,23.60
2023-04-23T02:43:12.066Z,23.61
2023-04-23T02:44:12.131Z,23.61
2023-04-23T02:45:12.220Z,23.61
2023-04-23T02:46:12.241Z,23.61
2023-04-23T02:47:12.302Z,23.60
2023-04-23T02:48:12.349Z,23.60
2023-04-23T02:49:12.388Z,23.60
2023-04-23T02:50:12.400Z,23.60
2023-04-23T02:51:12.810Z,23.60
2023-04-23T02:52:12.470Z,23.60
2023-04-23T02:53:12.489Z,23.59
2023-04-23T02:54:12.527Z,23.59
2023-04-23T02:55:12.590Z,23.59
2023-04-23T02:56:12.664Z,23.58
2023-04-23T02:57:12.673Z,23.58
2023-04-23T02:58:12.710Z,23.58
2023-04-23T02:59:12.751Z,23.58
2023-04-23T03:00:12.791Z,23.57
2023-04-23T03:01:12.901Z,23.58
2023-04-23T03:02:12.880Z,23.58
2023-04-23T03:03:13.037Z,23.58
2023-04-23T03:04:12.946Z,23.57
2023-04-23T03:05:12.951Z,23.58
2023-04-23T03:06:12.999Z,23.57
2023-04-23T03:07:13.055Z,23.57
2023-04-23T03:08:13.125Z,23.57
2023-04-23T03:09:13.173Z,23.57
2023-04-23T03:10:13.238Z,23.58
2023-04-23T03:11:13.287Z,23.57
2023-04-23T03:12:13.333Z,23.57
2023-04-23T03:13:13.368Z,23.58
2023-04-23T03:14:13.382Z,23.57
2023-04-23T03:15:13.389Z,23.58
2023-04-23T03:16:13.460Z,23.58
2023-04-23T03:17:13.475Z,23.58
2023-04-23T03:18:13.518Z,23.58
2023-04-23T03:19:13.542Z,23.58
2023-04-23T03:20:13.559Z,23.58
2023-04-23T03:21:13.594Z,23.58
2023-04-23T03:22:13.618Z,23.59
2023-04-23T03:23:13.645Z,23.59
2023-04-23T03:24:13.685Z,23.60
2023-04-23T03:25:13.725Z,23.59
2023-04-23T03:26:13.758Z,23.60
2023-04-23T03:27:13.798Z,23.60
2023-04-23T03:28:13.962Z,23.61
2023-04-23T03:29:13.846Z,23.61
2023-04-23T03:30:13.850Z,23.61
2023-04-23T03:31:13.947Z,23.61
2023-04-23T03:32:13.947Z,23.61
2023-04-23T03:33:13.942Z,23.62
2023-04-23T03:34:13.981Z,23.62
2023-04-23T03:35:13.981Z,23.62
2023-04-23T03:36:14.001Z,23.62
2023-04-23T03:37:14.019Z,23.62
2023-04-23T03:38:14.057Z,23.62
2023-04-23T03:39:14.067Z,23.63
2023-04-23T03:40:14.095Z,23.63
2023-04-23T03:41:14.123Z,23.63
2023-04-23T03:42:14.195Z,23.64
2023-04-23T03:43:14.229Z,23.64
2023-04-23T03:44:14.289Z,23.64
2023-04-23T03:45:14.313Z,23.64
2023-04-23T03:46:14.406Z,23.64
2023-04-23T03:47:14.375Z,23.64
2023-04-23T03:48:14.393Z,23.65
2023-04-23T03:49:14.409Z,23.65
2023-04-23T03:50:14.435Z,23.64
2023-04-23T03:51:14.480Z,23.65
2023-04-23T03:52:14.485Z,23.65
2023-04-23T03:53:14.525Z,23.64
2023-04-23T03:54:14.567Z,23.65
2023-04-23T03:55:14.587Z,23.65
2023-04-23T03:56:14.594Z,23.66
2023-04-23T03:57:14.630Z,23.65
2023-04-23T03:58:14.622Z,23.65
2023-04-23T03:59:14.656Z,23.65
2023-04-23T04:00:14.698Z,23.66
2023-04-23T04:01:14.707Z,23.66
2023-04-23T04:02:14.779Z,23.66
2023-04-23T04:03:15.002Z,23.66
2023-04-23T04:04:15.193Z,23.66
2023-04-23T04:05:15.247Z,23.66
2023-04-23T04:06:14.947Z,23.67
2023-04-23T04:07:14.966Z,23.67
2023-04-23T04:08:15.017Z,23.66
2023-04-23T04:09:15.009Z,23.66
2023-04-23T04:10:15.050Z,23.67
2023-04-23T04:11:15.061Z,23.67
2023-04-23T04:12:15.095Z,23.67
2023-04-23T04:13:15.097Z,23.67
2023-04-23T04:14:15.105Z,23.67
2023-04-23T04:15:15.116Z,23.67
2023-04-23T04:16:15.180Z,23.67
2023-04-23T04:17:15.166Z,23.67
2023-04-23T04:18:15.595Z,23.67
2023-04-23T04:19:15.235Z,23.67
2023-04-23T04:20:15.219Z,23.67
2023-04-23T04:21:15.252Z,23.68
2023-04-23T04:22:15.294Z,23.67
2023-04-23T04:23:15.381Z,23.67
2023-04-23T04:24:15.415Z,23.67
2023-04-23T04:25:15.433Z,23.68
2023-04-23T04:26:15.458Z,23.68
2023-04-23T04:27:15.495Z,23.67
2023-04-23T04:28:15.545Z,23.68
2023-04-23T04:29:15.622Z,23.69
2023-04-23T04:30:15.675Z,23.68
2023-04-23T04:31:15.745Z,23.68
2023-04-23T04:32:15.684Z,23.69
2023-04-23T04:33:15.708Z,23.69
2023-04-23T04:34:15.785Z,23.69
2023-04-23T04:35:15.744Z,23.69
2023-04-23T04:36:15.773Z,23.69
2023-04-23T04:37:15.805Z,23.69
2023-04-23T04:38:15.839Z,23.70
2023-04-23T04:39:15.828Z,23.70
2023-04-23T04:40:15.849Z,23.70
2023-04-23T04:41:15.885Z,23.71
2023-04-23T04:42:15.931Z,23.71
2023-04-23T04:43:15.967Z,23.70
2023-04-23T04:44:15.960Z,23.71
2023-04-23T04:45:16.024Z,23.71
2023-04-23T04:46:16.094Z,23.71
2023-04-23T04:47:16.136Z,23.72
2023-04-23T04:48:16.172Z,23.72
2023-04-23T04:49:16.216Z,23.71
2023-04-23T04:50:16.286Z,23.72
2023-04-23T04:51:16.300Z,23.72
2023-04-23T04:52:16.328Z,23.73
2023-04-23T04:53:16.426Z,23.73
2023-04-23T04:54:16.456Z,23.73
2023-04-23T04:55:16.544Z,23.72
2023-04-23T04:56:16.517Z,23.73
2023-04-23T04:57:16.559Z,23.72
2023-04-23T04:58:16.588Z,23.73
2023-04-23T04:59:16.599Z,23.73
2023-04-23T05:00:16.666Z,23.74
2023-04-23T05:01:16.728Z,23.73
2023-04-23T05:02:16.795Z,23.74
2023-04-23T05:03:16.949Z,23.74
2023-04-23T05:04:16.802Z,23.74
2023-04-23T05:05:16.744Z,23.74
2023-04-23T05:06:16.757Z,23.74
2023-04-23T05:07:16.792Z,23.75
2023-04-23T05:08:16.799Z,23.74
2023-04-23T05:09:16.816Z,23.75
2023-04-23T05:10:16.857Z,23.76
2023-04-23T05:11:16.915Z,23.76
2023-04-23T05:12:16.989Z,23.77
2023-04-23T05:13:17.080Z,23.77
2023-04-23T05:14:17.094Z,23.77
2023-04-23T05:15:17.121Z,23.77
2023-04-23T05:16:17.162Z,23.77
2023-04-23T05:17:17.171Z,23.78
2023-04-23T05:18:17.199Z,23.79
2023-04-23T05:19:17.219Z,23.79
2023-04-23T05:20:17.265Z,23.80
2023-04-23T05:21:17.309Z,23.80
2023-04-23T05:22:17.375Z,23.81
2023-04-23T05:23:17.472Z,23.81
2023-04-23T05:24:17.484Z,23.81
2023-04-23T05:25:17.469Z,23.81
2023-04-23T05:26:17.500Z,23.81
2023-04-23T05:27:17.493Z,23.82
2023-04-23T05:28:17.558Z,23.82
2023-04-23T05:29:17.535Z,23.83
2023-04-23T05:30:17.547Z,23.83
2023-04-23T05:31:17.578Z,23.84
2023-04-23T05:32:17.582Z,23.84
2023-04-23T05:33:17.595Z,23.85
2023-04-23T05:34:17.585Z,23.85
2023-04-23T05:35:17.595Z,23.85
2023-04-23T05:36:17.597Z,23.85
2023-04-23T05:37:17.615Z,23.86
2023-04-23T05:38:17.628Z,23.86
2023-04-23T05:39:17.640Z,23.87
2023-04-23T05:40:17.613Z,23.87
2023-04-23T05:41:17.599Z,23.87
2023-04-23T05:42:17.614Z,23.88
2023-04-23T05:43:17.616Z,23.88
2023-04-23T05:44:17.606Z,23.89
2023-04-23T05:45:17.623Z,23.89
2023-04-23T05:46:17.660Z,23.89
2023-04-23T05:47:17.647Z,23.90
2023-04-23T05:48:17.668Z,23.90
2023-04-23T05:49:17.641Z,23.90
2023-04-23T05:50:17.649Z,23.90
2023-04-23T05:51:17.636Z,23.91
2023-04-23T05:52:17.639Z,23.92
2023-04-23T05:53:17.727Z,23.91
2023-04-23T05:54:17.737Z,23.92
2023-04-23T05:55:17.795Z,23.92
2023-04-23T05:56:17.829Z,23.93
2023-04-23T05:57:17.850Z,23.93
2023-04-23T05:58:17.856Z,23.94
2023-04-23T05:59:17.840Z,23.94
2023-04-23T06:00:17.873Z,23.94
2023-04-23T06:01:17.903Z,23.95
2023-04-23T06:02:18.085Z,23.95
2023-04-23T06:03:18.339Z,23.95
2023-04-23T06:04:18.271Z,23.96
2023-04-23T06:05:18.212Z,23.95
2023-04-23T06:06:18.053Z,23.96
2023-04-23T06:07:18.057Z,23.96
2023-04-23T06:08:18.106Z,23.96
2023-04-23T06:09:18.143Z,23.97
2023-04-23T06:10:18.184Z,23.97
2023-04-23T06:11:18.211Z,23.97
2023-04-23T06:12:18.256Z,23.98
2023-04-23T06:13:18.319Z,23.98
2023-04-23T06:14:18.320Z,23.99
2023-04-23T06:15:18.378Z,24.00
2023-04-23T06:16:18.424Z,24.00
2023-04-23T06:17:18.416Z,24.01
2023-04-23T06:18:18.514Z,24.01
2023-04-23T06:19:18.407Z,24.01
2023-04-23T06:20:18.452Z,24.02
2023-04-23T06:21:19.355Z,24.03
2023-04-23T06:22:18.457Z,24.03
2023-04-23T06:23:18.477Z,24.04
2023-04-23T06:24:18.496Z,24.04
2023-04-23T06:25:18.506Z,24.05
2023-04-23T06:26:18.523Z,24.06
2023-04-23T06:27:18.553Z,24.07
2023-04-23T06:28:18.578Z,24.08
2023-04-23T06:29:18.593Z,24.08
2023-04-23T06:30:18.638Z,24.09
2023-04-23T06:31:18.678Z,24.10
2023-04-23T06:32:20.544Z,24.11
2023-04-23T06:33:18.677Z,24.11
2023-04-23T06:34:18.654Z,24.12
2023-04-23T06:35:18.714Z,24.14
2023-04-23T06:36:18.689Z,24.14
2023-04-23T06:37:18.707Z,24.14
2023-04-23T06:38:18.740Z,24.16
2023-04-23T06:39:18.800Z,24.17
2023-04-23T06:40:18.828Z,24.17
2023-04-23T06:41:18.844Z,24.19
2023-04-23T06:42:18.905Z,24.20
2023-04-23T06:43:18.949Z,24.20
2023-04-23T06:44:19.002Z,24.21
2023-04-23T06:45:19.040Z,24.22
2023-04-23T06:46:19.124Z,24.23
2023-04-23T06:47:19.134Z,24.24
2023-04-23T06:48:19.268Z,24.25
2023-04-23T06:49:19.248Z,24.26
2023-04-23T06:50:19.309Z,24.26
2023-04-23T06:51:19.355Z,24.27
2023-04-23T06:52:19.421Z,24.27
2023-04-23T06:53:19.501Z,24.28
2023-04-23T06:54:19.540Z,24.28
2023-04-23T06:55:19.597Z,24.30
2023-04-23T06:56:19.718Z,24.30
2023-04-23T06:57:19.679Z,24.30
2023-04-23T06:58:19.720Z,24.31
2023-04-23T06:59:19.706Z,24.32
2023-04-23T07:00:19.717Z,24.33
2023-04-23T07:01:19.893Z,24.34
2023-04-23T07:02:19.849Z,24.35
2023-04-23T07:03:20.080Z,24.36
2023-04-23T07:04:20.010Z,24.39
2023-04-23T07:05:20.004Z,24.41
2023-04-23T07:06:20.077Z,24.43
2023-04-23T07:07:20.135Z,24.46
2023-04-23T07:08:20.147Z,24.49
2023-04-23T07:09:20.135Z,24.50
2023-04-23T07:10:20.146Z,24.52
2023-04-23T07:11:20.166Z,24.54
2023-04-23T07:12:20.212Z,24.56
2023-04-23T07:13:20.250Z,24.59
2023-04-23T07:14:20.275Z,24.61
2023-04-23T07:15:20.417Z,24.62
2023-04-23T07:16:22.153Z,24.63
2023-04-23T07:17:20.749Z,24.66
2023-04-23T07:18:20.547Z,24.67
2023-04-23T07:19:20.491Z,24.71
2023-04-23T07:20:20.515Z,24.73
2023-04-23T07:21:20.541Z,24.77
2023-04-23T07:22:20.566Z,24.80
2023-04-23T07:23:20.625Z,24.84
2023-04-23T07:24:20.633Z,24.87
2023-04-23T07:25:20.652Z,24.92
2023-04-23T07:26:20.721Z,24.96
2023-04-23T07:27:20.758Z,25.00
2023-04-23T07:28:20.833Z,25.06
2023-04-23T07:29:20.872Z,25.12
2023-04-23T07:30:20.948Z,25.17
2023-04-23T07:31:21.026Z,25.22
2023-04-23T07:32:21.013Z,25.28
2023-04-23T07:33:21.024Z,25.34
2023-04-23T07:34:21.035Z,25.42
2023-04-23T07:35:21.062Z,25.49
2023-04-23T07:36:21.066Z,25.56
2023-04-23T07:37:21.098Z,25.63
2023-04-23T07:38:21.168Z,25.71
2023-04-23T07:39:21.207Z,25.79
2023-04-23T07:40:21.248Z,25.87
2023-04-23T07:41:21.316Z,25.95
2023-04-23T07:42:21.390Z,26.02
2023-04-23T07:43:21.409Z,26.11
2023-04-23T07:44:21.436Z,26.17
2023-04-23T07:45:21.533Z,26.24
2023-04-23T07:46:21.559Z,26.31
2023-04-23T07:47:21.535Z,26.38
2023-04-23T07:48:21.564Z,26.44
2023-04-23T07:49:21.537Z,26.50
2023-04-23T07:50:21.588Z,26.57
2023-04-23T07:51:21.647Z,26.64
2023-04-23T07:52:21.634Z,26.69
2023-04-23T07:53:21.636Z,26.73
2023-04-23T07:54:22.059Z,26.77
2023-04-23T07:55:21.682Z,26.83
2023-04-23T07:56:21.699Z,26.86
2023-04-23T07:57:21.730Z,26.89
2023-04-23T07:58:21.776Z,26.91
2023-04-23T07:59:21.787Z,26.95
2023-04-23T08:00:21.839Z,26.99
2023-04-23T08:01:21.806Z,27.00
2023-04-23T08:02:21.941Z,27.02
2023-04-23T08:03:22.070Z,27.06
2023-04-23T08:04:22.192Z,27.08
2023-04-23T08:05:21.977Z,27.10
2023-04-23T08:06:21.950Z,27.10
2023-04-23T08:07:21.947Z,27.10
2023-04-23T08:08:21.982Z,27.12
2023-04-23T08:09:21.998Z,27.13
2023-04-23T08:10:21.970Z,27.14
2023-04-23T08:11:21.979Z,27.15
2023-04-23T08:12:22.008Z,27.17
2023-04-23T08:13:22.079Z,27.18
2023-04-23T08:14:22.102Z,27.20
2023-04-23T08:15:22.167Z,27.22
2023-04-23T08:16:22.277Z,27.23
2023-04-23T08:17:22.318Z,27.26
2023-04-23T08:18:22.300Z,27.26
2023-04-23T08:19:22.344Z,27.26
2023-04-23T08:20:22.407Z,27.27
2023-04-23T08:21:22.422Z,27.28
2023-04-23T08:22:22.458Z,27.30
2023-04-23T08:23:22.452Z,27.32
2023-04-23T08:24:22.473Z,27.33
2023-04-23T08:25:22.550Z,27.35
2023-04-23T08:26:22.572Z,27.36
2023-04-23T08:27:22.598Z,27.36
2023-04-23T08:28:22.634Z,27.37
2023-04-23T08:29:22.679Z,27.39
2023-04-23T08:30:22.712Z,27.40
2023-04-23T08:31:26.977Z,27.41
2023-04-23T08:32:22.853Z,27.42
2023-04-23T08:33:22.742Z,27.42
2023-04-23T08:34:22.708Z,27.43
2023-04-23T08:35:22.691Z,27.44
2023-04-23T08:36:22.703Z,27.43
2023-04-23T08:37:30.291Z,27.46
2023-04-23T08:38:23.710Z,27.47
2023-04-23T08:39:22.692Z,27.49
2023-04-23T08:40:22.767Z,27.50
2023-04-23T08:41:22.682Z,27.50
2023-04-23T08:42:22.666Z,27.50
2023-04-23T08:43:22.647Z,27.50
2023-04-23T08:44:22.647Z,27.51
2023-04-23T08:45:22.648Z,27.51
2023-04-23T08:46:22.705Z,27.50
2023-04-23T08:47:22.649Z,27.50
2023-04-23T08:48:22.645Z,27.51
2023-04-23T08:49:22.613Z,27.53
2023-04-23T08:50:22.605Z,27.54
2023-04-23T08:51:22.615Z,27.55
2023-04-23T08:52:22.589Z,27.57
2023-04-23T08:53:22.589Z,27.60
2023-04-23T08:54:22.601Z,27.62
2023-04-23T08:55:22.622Z,27.65
2023-04-23T08:56:22.662Z,27.67
2023-04-23T08:57:22.722Z,27.69
2023-04-23T08:58:22.767Z,27.71
2023-04-23T08:59:22.759Z,27.73
2023-04-23T09:00:22.919Z,27.74
2023-04-23T09:01:22.901Z,27.76
2023-04-23T09:02:22.974Z,27.77
2023-04-23T09:03:23.001Z,27.78
2023-04-23T09:04:22.938Z,27.78
2023-04-23T09:05:22.967Z,27.82
2023-04-23T09:06:22.914Z,27.80
2023-04-23T09:07:22.963Z,27.83
2023-04-23T09:08:23.020Z,27.84
2023-04-23T09:09:23.037Z,27.87
2023-04-23T09:10:23.078Z,27.86
2023-04-23T09:11:23.047Z,27.88
2023-04-23T09:12:23.071Z,27.87
2023-04-23T09:13:23.132Z,27.88
2023-04-23T09:14:23.186Z,27.87
2023-04-23T09:15:23.237Z,27.88
2023-04-23T09:16:23.336Z,27.90
2023-04-23T09:17:23.381Z,27.91
2023-04-23T09:18:23.423Z,27.91
2023-04-23T09:19:23.456Z,27.92
2023-04-23T09:20:23.533Z,27.92
2023-04-23T09:21:23.603Z,27.93
2023-04-23T09:22:23.664Z,27.94
2023-04-23T09:23:23.762Z,27.95
2023-04-23T09:24:23.797Z,27.96
2023-04-23T09:25:23.839Z,27.97
2023-04-23T09:26:23.899Z,27.98
2023-04-23T09:27:23.920Z,27.98
2023-04-23T09:28:23.919Z,27.99
2023-04-23T09:29:23.972Z,28.00
2023-04-23T09:30:24.017Z,28.00
2023-04-23T09:31:24.282Z,28.01
2023-04-23T09:32:24.148Z,28.02
2023-04-23T09:33:24.186Z,28.02
2023-04-23T09:34:24.204Z,28.04
2023-04-23T09:35:24.324Z,28.05
2023-04-23T09:36:24.236Z,28.02
2023-04-23T09:37:24.254Z,27.99
2023-04-23T09:38:24.290Z,27.96
2023-04-23T09:39:24.302Z,27.92
2023-04-23T09:40:24.367Z,27.92
2023-04-23T09:41:24.421Z,27.96
2023-04-23T09:42:24.487Z,27.99
2023-04-23T09:43:24.538Z,28.01
2023-04-23T09:44:24.610Z,28.01
2023-04-23T09:45:24.643Z,27.98
2023-04-23T09:46:24.755Z,28.01
2023-04-23T09:47:25.324Z,28.05
2023-04-23T09:48:24.731Z,28.09
2023-04-23T09:49:24.742Z,28.11
2023-04-23T09:50:24.783Z,28.12
2023-04-23T09:51:24.834Z,28.13
2023-04-23T09:52:24.859Z,28.15
2023-04-23T09:53:24.932Z,28.17
2023-04-23T09:54:24.949Z,28.17
2023-04-23T09:55:24.966Z,28.10
2023-04-23T09:56:24.995Z,28.05
2023-04-23T09:57:25.049Z,28.01
2023-04-23T09:58:26.415Z,27.96
2023-04-23T09:59:39.614Z,27.92
2023-04-23T10:00:26.099Z,27.94
2023-04-23T10:01:25.098Z,27.98
2023-04-23T10:02:25.178Z,28.03
2023-04-23T10:03:25.163Z,28.00
2023-04-23T10:04:25.219Z,27.94
2023-04-23T10:05:29.418Z,27.90
2023-04-23T10:07:26.034Z,27.85
2023-04-23T10:08:25.174Z,27.86
2023-04-23T10:09:25.042Z,27.82
2023-04-23T10:10:25.030Z,27.78
2023-04-23T10:11:25.018Z,27.76
2023-04-23T10:13:24.999Z,27.70
2023-04-23T10:14:24.990Z,27.66
2023-04-23T10:15:24.985Z,27.63
2023-04-23T10:16:28.494Z,27.60
2023-04-23T10:17:25.987Z,27.56
2023-04-23T10:18:24.986Z,27.53
2023-04-23T10:19:24.974Z,27.51
2023-04-23T10:20:24.963Z,27.48
2023-04-23T10:21:24.937Z,27.47
2023-04-23T10:22:24.946Z,27.44
2023-04-23T10:23:24.946Z,27.43
2023-04-23T10:24:24.936Z,27.40
2023-04-23T10:25:24.911Z,27.38
2023-04-23T10:26:24.899Z,27.36
2023-04-23T10:27:33.209Z,27.34
2023-04-23T10:28:25.912Z,27.33
2023-04-23T10:29:24.885Z,27.31
2023-04-23T10:30:24.913Z,27.30
2023-04-23T10:31:24.897Z,27.28
2023-04-23T10:32:24.953Z,27.27
2023-04-23T10:33:30.656Z,27.26
2023-04-23T10:34:25.908Z,27.25
2023-04-23T10:35:24.840Z,27.25
2023-04-23T10:36:24.850Z,27.33
2023-04-23T10:37:24.915Z,27.40
2023-04-23T10:38:24.828Z,27.48
2023-04-23T10:39:44.382Z,27.52
2023-04-23T10:40:25.821Z,27.56
2023-04-23T10:41:24.826Z,27.57
2023-04-23T10:42:24.794Z,27.55
2023-04-23T10:43:24.849Z,27.52
2023-04-23T10:44:45.071Z,27.51
2023-04-23T10:45:26.025Z,27.48
2023-04-23T10:46:24.798Z,27.45
2023-04-23T10:47:24.803Z,27.41
2023-04-23T10:48:24.759Z,27.41
2023-04-23T10:49:24.744Z,27.44
2023-04-23T10:50:24.756Z,27.42
2023-04-23T10:52:10.285Z,27.42
2023-04-23T10:52:26.148Z,27.46
2023-04-23T10:53:24.719Z,27.51
2023-04-23T10:54:24.728Z,27.52
2023-04-23T10:55:24.703Z,27.56
2023-04-23T10:56:24.701Z,27.58
2023-04-23T10:57:24.700Z,27.58
2023-04-23T10:58:24.676Z,27.60
2023-04-23T10:59:24.683Z,27.62
2023-04-23T11:00:24.681Z,27.63
2023-04-23T11:01:24.698Z,27.64
2023-04-23T11:02:24.826Z,27.65
2023-04-23T11:03:24.734Z,27.64
2023-04-23T11:04:24.906Z,27.66
2023-04-23T11:05:24.668Z,27.67
2023-04-23T11:06:24.642Z,27.64
2023-04-23T11:07:24.634Z,27.66
2023-04-23T11:08:24.639Z,27.62
2023-04-23T11:09:24.639Z,27.56
2023-04-23T11:10:24.613Z,27.57
2023-04-23T11:11:24.623Z,27.60
2023-04-23T11:12:24.658Z,27.63
2023-04-23T11:13:24.684Z,27.62
2023-04-23T11:14:24.709Z,27.61
2023-04-23T11:15:24.722Z,27.62
2023-04-23T11:16:24.817Z,27.60
2023-04-23T11:17:24.860Z,27.59
2023-04-23T11:18:24.864Z,27.62
2023-04-23T11:19:24.899Z,27.63
2023-04-23T11:20:24.936Z,27.64
2023-04-23T11:21:24.936Z,27.65
2023-04-23T11:22:24.993Z,27.66
2023-04-23T11:23:25.035Z,27.67
2023-04-23T11:24:25.091Z,27.69
2023-04-23T11:25:25.140Z,27.69
2023-04-23T11:26:25.164Z,27.69
2023-04-23T11:27:25.204Z,27.70
2023-04-23T11:28:25.231Z,27.70
2023-04-23T11:29:25.285Z,27.70
2023-04-23T11:30:25.324Z,27.69
2023-04-23T11:31:25.424Z,27.69
2023-04-23T11:32:25.542Z,27.68
2023-04-23T11:33:25.475Z,27.70
2023-04-23T11:34:25.477Z,27.70
2023-04-23T11:35:25.512Z,27.69
2023-04-23T11:36:25.561Z,27.70
2023-04-23T11:37:25.608Z,27.71
2023-04-23T11:38:25.685Z,27.71
2023-04-23T11:39:25.847Z,27.67
2023-04-23T11:40:25.900Z,27.59
2023-04-23T11:41:25.851Z,27.54
2023-04-23T11:42:25.861Z,27.49
2023-04-23T11:43:25.898Z,27.46
2023-04-23T11:44:25.937Z,27.42
2023-04-23T11:45:25.955Z,27.39
2023-04-23T11:46:26.114Z,27.36
2023-04-23T11:47:26.107Z,27.34
2023-04-23T11:48:26.028Z,27.34
2023-04-23T11:49:26.028Z,27.37
2023-04-23T11:50:26.035Z,27.41
2023-04-23T11:51:26.041Z,27.37
2023-04-23T11:52:26.025Z,27.34
2023-04-23T11:53:26.049Z,27.30
2023-04-23T11:54:26.034Z,27.28
2023-04-23T11:55:26.024Z,27.26
2023-04-23T11:56:26.029Z,27.23
2023-04-23T11:57:26.040Z,27.27
2023-04-23T11:58:26.032Z,27.31
2023-04-23T11:59:26.041Z,27.33
2023-04-23T12:00:26.074Z,27.32
2023-04-23T12:01:26.059Z,27.28
2023-04-23T12:02:26.274Z,27.24
2023-04-23T12:03:26.211Z,27.22
2023-04-23T12:04:26.286Z,27.20
2023-04-23T12:05:26.161Z,27.17
2023-04-23T12:06:26.165Z,27.16
2023-04-23T12:07:26.919Z,27.14
2023-04-23T12:08:26.187Z,27.13
2023-04-23T12:09:26.241Z,27.12
2023-04-23T12:10:26.225Z,27.11
2023-04-23T12:11:26.245Z,27.11
2023-04-23T12:12:26.272Z,27.10
2023-04-23T12:13:26.265Z,27.10
2023-04-23T12:14:26.281Z,27.09
2023-04-23T12:15:26.286Z,27.08
2023-04-23T12:16:26.467Z,27.06
2023-04-23T12:17:26.342Z,27.04
2023-04-23T12:18:26.389Z,27.03
2023-04-23T12:19:26.408Z,27.01
2023-04-23T12:20:26.415Z,26.99
2023-04-23T12:21:26.605Z,26.99
2023-04-23T12:22:26.485Z,26.97
2023-04-23T12:23:26.586Z,26.96
2023-04-23T12:24:26.655Z,26.95
2023-04-23T12:25:26.551Z,26.95
2023-04-23T12:26:26.685Z,26.95
2023-04-23T12:27:26.661Z,26.94
2023-04-23T12:28:26.656Z,26.92
2023-04-23T12:29:26.672Z,26.92
2023-04-23T12:30:26.691Z,26.91
2023-04-23T12:31:26.767Z,26.91
2023-04-23T12:32:26.758Z,26.90
2023-04-23T12:33:26.767Z,26.89
2023-04-23T12:34:26.823Z,26.89
2023-04-23T12:35:26.829Z,26.88
2023-04-23T12:36:26.839Z,26.87
2023-04-23T12:37:26.968Z,26.86
2023-04-23T12:38:26.879Z,26.85
2023-04-23T12:39:26.845Z,26.85
2023-04-23T12:40:26.810Z,26.84
2023-04-23T12:41:26.837Z,26.83
2023-04-23T12:42:26.859Z,26.82
2023-04-23T12:43:26.835Z,26.81
2023-04-23T12:44:26.871Z,26.81
2023-04-23T12:45:26.867Z,26.81
2023-04-23T12:46:26.893Z,26.81
2023-04-23T12:47:26.992Z,26.80
2023-04-23T12:48:26.915Z,26.79
2023-04-23T12:49:27.007Z,26.78
2023-04-23T12:50:27.004Z,26.78
2023-04-23T12:51:27.048Z,26.77
2023-04-23T12:52:27.091Z,26.76
2023-04-23T12:53:27.172Z,26.75
2023-04-23T12:54:27.229Z,26.74